Time;durP1;ratioP1;P1;durP2;ratioP2;P2;SDS_P1;SDS_P2;PMS_P1;PMS_P2;Temp;Humidity;BMP_temperature;BMP_pressure;BME280_temperature;BME280_humidity;BME280_pressure;Samples;Min_cycle;Max_cycle;Signal;HPM_P1;HPM_P2
2021/06/06 00:01:16;;;;;;;2.50;1.70;;;25.70;53.80;;;;;;5016810;28;20376;-80
2021/06/06 00:03:52;;;;;;;2.33;2.03;;;25.70;53.80;;;;;;4999211;28;20484;-81
2021/06/06 00:06:23;;;;;;;1.70;1.60;;;25.70;53.90;;;;;;4999298;28;20956;-81
2021/06/06 00:08:49;;;;;;;2.27;2.00;;;25.70;53.90;;;;;;5016120;28;20444;-81
2021/06/06 00:11:20;;;;;;;2.27;1.63;;;25.70;53.80;;;;;;5017455;28;20418;-80
2021/06/06 00:13:49;;;;;;;2.03;1.93;;;25.70;53.80;;;;;;5000638;28;20403;-80
2021/06/06 00:16:28;;;;;;;1.77;1.67;;;25.60;53.70;;;;;;4998662;28;20500;-81
2021/06/06 00:18:54;;;;;;;1.97;1.67;;;25.70;53.80;;;;;;5015450;28;20458;-81
2021/06/06 00:21:22;;;;;;;1.87;1.77;;;25.70;53.70;;;;;;4999732;28;20508;-81
2021/06/06 00:23:48;;;;;;;2.13;1.90;;;25.70;53.80;;;;;;4999574;28;20478;-81
2021/06/06 00:26:15;;;;;;;1.90;1.70;;;25.70;53.80;;;;;;5017062;28;20444;-81
2021/06/06 00:28:41;;;;;;;2.90;2.00;;;25.70;53.80;;;;;;5000843;28;20420;-81
2021/06/06 00:31:08;;;;;;;2.07;1.73;;;25.70;53.80;;;;;;5000708;28;20411;-82
2021/06/06 00:33:43;;;;;;;2.20;1.87;;;25.70;53.70;;;;;;4998676;28;20511;-81
2021/06/06 00:36:09;;;;;;;2.37;2.00;;;25.70;53.70;;;;;;5018681;28;20399;-81
2021/06/06 00:38:35;;;;;;;1.77;1.50;;;25.70;53.70;;;;;;5001799;28;20535;-79
2021/06/06 00:41:03;;;;;;;1.97;1.87;;;25.70;53.70;;;;;;5018967;28;20424;-79
2021/06/06 00:43:31;;;;;;;2.73;1.70;;;25.70;53.70;;;;;;5001810;28;20412;-81
2021/06/06 00:45:57;;;;;;;2.17;1.80;;;25.70;53.70;;;;;;5019586;28;20393;-81
2021/06/06 00:48:23;;;;;;;1.93;1.53;;;25.70;53.70;;;;;;5019444;28;20468;-81
2021/06/06 00:50:53;;;;;;;2.07;1.87;;;25.70;53.70;;;;;;5002236;28;20177;-81
2021/06/06 00:53:40;;;;;;;1.73;1.60;;;25.70;53.80;;;;;;5019125;28;20471;-81
2021/06/06 00:56:12;;;;;;;2.00;1.57;;;25.80;53.80;;;;;;5002234;28;20449;-81
2021/06/06 00:58:42;;;;;;;1.70;1.53;;;25.70;53.80;;;;;;4999735;28;20459;-82
2021/06/06 01:01:10;;;;;;;2.13;1.93;;;25.70;53.80;;;;;;5014884;28;20380;-82
2021/06/06 01:03:36;;;;;;;1.77;1.67;;;25.70;53.80;;;;;;5000274;28;20400;-81
2021/06/06 01:06:10;;;;;;;2.73;2.10;;;25.70;53.80;;;;;;5018752;28;20419;-81
2021/06/06 01:08:38;;;;;;;1.90;1.60;;;25.70;53.80;;;;;;5001604;28;20153;-81
2021/06/06 01:11:14;;;;;;;2.00;1.80;;;25.70;53.80;;;;;;4998156;28;20397;-81
2021/06/06 01:13:41;;;;;;;2.70;1.90;;;25.70;53.80;;;;;;5015058;28;20411;-81
2021/06/06 01:16:29;;;;;;;1.87;1.60;;;25.70;53.80;;;;;;4997952;28;20420;-82
2021/06/06 01:18:57;;;;;;;1.80;1.70;;;25.70;53.80;;;;;;5014498;28;20456;-81
2021/06/06 01:21:35;;;;;;;1.80;1.70;;;25.70;53.80;;;;;;4982215;28;20419;-81
2021/06/06 01:24:07;;;;;;;1.87;1.70;;;25.70;53.80;;;;;;5014300;28;20396;-81
2021/06/06 01:26:48;;;;;;;2.00;1.80;;;25.70;53.80;;;;;;5013210;28;20435;-81
2021/06/06 01:29:38;;;;;;;1.83;1.73;;;25.70;53.80;;;;;;4997498;28;20413;-81
2021/06/06 01:32:13;;;;;;;1.83;1.63;;;25.70;53.80;;;;;;4997607;28;20420;-82
2021/06/06 01:34:41;;;;;;;1.67;1.57;;;25.70;53.80;;;;;;4997822;28;20406;-82
2021/06/06 01:37:14;;;;;;;1.70;1.50;;;25.70;53.80;;;;;;4998634;28;20396;-82
2021/06/06 01:39:46;;;;;;;2.20;1.60;;;25.70;53.80;;;;;;4997495;28;20444;-82
2021/06/06 01:42:23;;;;;;;1.67;1.50;;;25.70;53.80;;;;;;5014920;28;20450;-82
2021/06/06 01:44:52;;;;;;;2.10;1.80;;;25.70;53.80;;;;;;4997529;28;20496;-81
2021/06/06 01:47:21;;;;;;;2.20;1.93;;;25.70;53.80;;;;;;4998024;28;20416;-81
2021/06/06 01:50:04;;;;;;;1.87;1.67;;;25.70;53.80;;;;;;4997764;28;20424;-81
2021/06/06 01:52:34;;;;;;;2.10;1.60;;;25.70;53.80;;;;;;5013545;28;20495;-81
2021/06/06 01:55:03;;;;;;;1.70;1.60;;;25.70;53.90;;;;;;5014435;28;20522;-81
2021/06/06 01:57:36;;;;;;;2.83;1.53;;;25.70;53.80;;;;;;4997582;28;20459;-81
2021/06/06 02:00:07;;;;;;;2.30;1.93;;;25.70;53.80;;;;;;4997683;28;20455;-81
2021/06/06 02:02:33;;;;;;;2.00;1.73;;;25.70;53.80;;;;;;4994796;28;20416;-81
2021/06/06 02:04:59;;;;;;;1.70;1.60;;;25.70;53.80;;;;;;4994285;28;20408;-80
2021/06/06 02:07:29;;;;;;;2.33;1.93;;;25.70;53.80;;;;;;5011380;28;20248;-81
2021/06/06 02:09:58;;;;;;;2.00;1.80;;;25.70;53.80;;;;;;5011980;28;20208;-82
2021/06/06 02:12:30;;;;;;;1.40;1.30;;;25.70;53.80;;;;;;4994593;28;20439;-81
2021/06/06 02:14:56;;;;;;;2.03;1.80;;;25.60;53.80;;;;;;5011446;28;20420;-81
2021/06/06 02:17:29;;;;;;;1.80;1.70;;;25.70;53.80;;;;;;4977897;28;20427;-81
2021/06/06 02:19:59;;;;;;;1.87;1.40;;;25.70;53.80;;;;;;5011913;28;20189;-80
2021/06/06 02:22:27;;;;;;;2.23;1.83;;;25.60;53.80;;;;;;4994017;28;20413;-81
2021/06/06 02:24:53;;;;;;;2.73;2.43;;;25.70;53.80;;;;;;5011046;28;20412;-81
2021/06/06 02:27:22;;;;;;;1.73;1.60;;;25.70;53.80;;;;;;4994486;28;20417;-81
2021/06/06 02:30:01;;;;;;;2.30;1.70;;;25.70;53.80;;;;;;5011552;28;20416;-81
2021/06/06 02:32:39;;;;;;;1.53;1.40;;;25.70;53.80;;;;;;4994280;28;20424;-81
2021/06/06 02:35:19;;;;;;;1.67;1.57;;;25.70;53.80;;;;;;4994682;28;20419;-81
2021/06/06 02:38:07;;;;;;;1.70;1.60;;;25.70;53.80;;;;;;5011362;28;20403;-81
2021/06/06 02:40:41;;;;;;;1.40;1.30;;;25.60;53.80;;;;;;4994040;28;20416;-80
2021/06/06 02:43:16;;;;;;;1.53;1.43;;;25.70;53.90;;;;;;5010973;28;20392;-80
2021/06/06 02:45:42;;;;;;;1.73;1.60;;;25.60;53.80;;;;;;4993825;28;20423;-81
2021/06/06 02:48:16;;;;;;;2.27;1.67;;;25.70;53.80;;;;;;5011676;28;20408;-81
2021/06/06 02:50:43;;;;;;;3.17;1.73;;;25.60;53.80;;;;;;5010832;28;20769;-81
2021/06/06 02:53:27;;;;;;;1.80;1.60;;;25.60;53.80;;;;;;5011071;28;20418;-81
2021/06/06 02:55:58;;;;;;;2.23;2.03;;;25.70;53.80;;;;;;5011304;28;20392;-81
2021/06/06 02:58:31;;;;;;;2.00;1.80;;;25.60;53.80;;;;;;4993861;28;20467;-80
2021/06/06 03:01:10;;;;;;;1.57;1.47;;;25.70;53.80;;;;;;4993687;28;20416;-81
2021/06/06 03:03:38;;;;;;;1.90;1.70;;;25.60;53.80;;;;;;4999540;28;20816;-80
2021/06/06 03:06:09;;;;;;;2.87;1.90;;;25.60;53.80;;;;;;4998950;28;20416;-81
2021/06/06 03:08:35;;;;;;;1.90;1.67;;;25.60;53.80;;;;;;5017047;28;20409;-80
2021/06/06 03:11:05;;;;;;;1.47;1.30;;;25.60;53.80;;;;;;5017221;28;20428;-81
2021/06/06 03:13:36;;;;;;;1.80;1.70;;;25.60;53.80;;;;;;5017301;28;20410;-81
2021/06/06 03:16:03;;;;;;;1.63;1.53;;;25.60;53.80;;;;;;5019821;28;20499;-81
2021/06/06 03:18:35;;;;;;;2.73;1.60;;;25.70;53.80;;;;;;5001819;28;20470;-81
2021/06/06 03:21:18;;;;;;;2.30;1.57;;;25.60;53.80;;;;;;5002488;28;20420;-81
2021/06/06 03:23:58;;;;;;;2.17;1.60;;;25.70;53.90;;;;;;5001873;28;20424;-80
2021/06/06 03:26:24;;;;;;;2.60;1.60;;;25.60;53.80;;;;;;5001615;28;20454;-81
2021/06/06 03:28:52;;;;;;;2.00;1.80;;;25.60;53.90;;;;;;5018797;28;20400;-80
2021/06/06 03:31:30;;;;;;;1.60;1.50;;;25.60;53.80;;;;;;5001774;28;20427;-80
2021/06/06 03:33:59;;;;;;;2.10;1.80;;;25.70;53.80;;;;;;5001464;28;20412;-81
2021/06/06 03:36:30;;;;;;;1.73;1.37;;;25.60;53.80;;;;;;5018606;28;20400;-81
2021/06/06 03:39:00;;;;;;;2.03;1.63;;;25.60;53.80;;;;;;5018727;28;20476;-81
2021/06/06 03:41:28;;;;;;;1.87;1.60;;;25.60;53.80;;;;;;5018646;28;20411;-81
2021/06/06 03:43:54;;;;;;;1.50;1.40;;;25.60;53.80;;;;;;5017901;28;20424;-80
2021/06/06 03:46:23;;;;;;;3.67;1.60;;;25.60;53.80;;;;;;5018328;28;20404;-81
2021/06/06 03:48:48;;;;;;;2.03;1.60;;;25.60;53.90;;;;;;5001091;28;20425;-80
2021/06/06 03:51:15;;;;;;;2.00;1.90;;;25.60;53.80;;;;;;5000871;28;20459;-81
2021/06/06 03:53:41;;;;;;;1.70;1.60;;;25.60;53.80;;;;;;5017613;28;20173;-81
2021/06/06 03:56:08;;;;;;;1.70;1.60;;;25.60;53.80;;;;;;5017334;28;20396;-81
2021/06/06 03:58:35;;;;;;;1.57;1.47;;;25.60;53.80;;;;;;4999688;28;20492;-80
2021/06/06 04:01:03;;;;;;;1.63;1.53;;;25.60;53.80;;;;;;5000311;28;20426;-81
2021/06/06 04:03:29;;;;;;;1.47;1.27;;;25.60;53.80;;;;;;5017595;28;20440;-80
2021/06/06 04:05:55;;;;;;;1.77;1.40;;;25.70;53.90;;;;;;5000435;28;20435;-81
2021/06/06 04:08:21;;;;;;;2.53;1.63;;;25.60;53.80;;;;;;5017792;28;20189;-81
2021/06/06 04:10:49;;;;;;;2.00;1.70;;;25.70;53.90;;;;;;5016364;28;20173;-80
2021/06/06 04:13:15;;;;;;;1.87;1.70;;;25.60;53.80;;;;;;4997356;28;20431;-81
2021/06/06 04:15:42;;;;;;;2.10;1.90;;;25.60;53.80;;;;;;5014842;28;20448;-81
2021/06/06 04:18:17;;;;;;;2.40;1.80;;;25.60;53.80;;;;;;4997622;28;20468;-81
2021/06/06 04:20:44;;;;;;;1.63;1.43;;;25.60;53.80;;;;;;4997965;28;20404;-81
2021/06/06 04:23:11;;;;;;;1.70;1.60;;;25.60;53.80;;;;;;5015587;28;20405;-81
2021/06/06 04:25:37;;;;;;;1.93;1.60;;;25.60;53.80;;;;;;5015065;28;20405;-81
2021/06/06 04:28:04;;;;;;;1.93;1.63;;;25.60;53.80;;;;;;4998262;28;20428;-81
2021/06/06 04:30:31;;;;;;;1.70;1.50;;;25.60;53.90;;;;;;4997717;28;20412;-81
2021/06/06 04:32:57;;;;;;;1.70;1.60;;;25.60;53.90;;;;;;4997871;28;20439;-81
2021/06/06 04:35:23;;;;;;;3.37;3.13;;;25.60;53.90;;;;;;5015300;28;20488;-80
2021/06/06 04:37:49;;;;;;;1.60;1.50;;;25.60;53.90;;;;;;4997384;28;20427;-81
2021/06/06 04:40:16;;;;;;;1.60;1.40;;;25.60;53.90;;;;;;4997386;28;20518;-80
2021/06/06 04:42:42;;;;;;;1.80;1.70;;;25.60;53.90;;;;;;5014734;28;20184;-81
2021/06/06 04:45:13;;;;;;;1.73;1.63;;;25.60;53.90;;;;;;4997425;28;20436;-81
2021/06/06 04:47:39;;;;;;;1.70;1.53;;;25.60;53.90;;;;;;5015254;28;20963;-81
2021/06/06 04:50:08;;;;;;;1.63;1.50;;;25.60;53.90;;;;;;5012262;28;20417;-80
2021/06/06 04:52:37;;;;;;;2.13;1.40;;;25.60;53.90;;;;;;4994967;28;20185;-80
2021/06/06 04:55:15;;;;;;;1.87;1.67;;;25.60;53.90;;;;;;4975502;28;20428;-81
2021/06/06 04:57:41;;;;;;;2.70;1.80;;;25.60;53.80;;;;;;4975789;28;20430;-81
2021/06/06 05:00:09;;;;;;;1.67;1.57;;;25.60;53.80;;;;;;4991528;28;20520;-81
2021/06/06 05:02:35;;;;;;;1.83;1.63;;;25.60;53.90;;;;;;4975606;28;20413;-81
2021/06/06 05:05:01;;;;;;;1.90;1.80;;;25.60;53.80;;;;;;4992278;28;20420;-80
2021/06/06 05:07:27;;;;;;;1.87;1.40;;;25.70;53.90;;;;;;4975310;28;20178;-80
2021/06/06 05:09:53;;;;;;;2.00;1.80;;;25.60;53.80;;;;;;4992312;28;20492;-80
2021/06/06 05:12:18;;;;;;;1.80;1.70;;;25.70;53.90;;;;;;4992921;28;20241;-80
2021/06/06 05:14:44;;;;;;;1.60;1.50;;;25.60;53.90;;;;;;4988769;28;20478;-80
2021/06/06 05:17:10;;;;;;;1.70;1.50;;;25.60;53.80;;;;;;4989082;28;20170;-80
2021/06/06 05:19:36;;;;;;;1.60;1.47;;;25.60;53.90;;;;;;4992717;28;20210;-80
2021/06/06 05:22:05;;;;;;;1.73;1.60;;;25.70;53.90;;;;;;4977503;28;20262;-80
2021/06/06 05:24:31;;;;;;;1.90;1.77;;;25.60;53.80;;;;;;4976276;28;20188;-80
2021/06/06 05:26:57;;;;;;;1.50;1.40;;;25.70;53.90;;;;;;4993438;28;20452;-81
2021/06/06 05:29:23;;;;;;;1.73;1.63;;;25.60;53.80;;;;;;4975031;28;20515;-80
2021/06/06 05:31:51;;;;;;;1.80;1.70;;;25.70;53.90;;;;;;4992078;28;20421;-81
2021/06/06 05:34:17;;;;;;;1.80;1.63;;;25.70;53.90;;;;;;4992626;28;20209;-81
2021/06/06 05:36:43;;;;;;;1.63;1.53;;;25.60;53.90;;;;;;4975436;28;20425;-80
2021/06/06 05:39:09;;;;;;;1.77;1.37;;;25.60;53.80;;;;;;4975995;28;20269;-80
2021/06/06 05:41:36;;;;;;;1.70;1.60;;;25.60;53.80;;;;;;4992848;28;20467;-80
2021/06/06 05:44:05;;;;;;;1.73;1.60;;;25.60;53.80;;;;;;4976805;28;20449;-80
2021/06/06 05:46:35;;;;;;;1.50;1.40;;;25.60;53.90;;;;;;5001353;28;20435;-80
2021/06/06 05:49:02;;;;;;;1.80;1.70;;;25.60;53.80;;;;;;5003863;28;20413;-79
2021/06/06 05:51:28;;;;;;;1.47;1.37;;;25.60;53.80;;;;;;5005162;28;20421;-80
2021/06/06 05:53:55;;;;;;;1.70;1.60;;;25.70;53.90;;;;;;4996975;28;20445;-80
2021/06/06 05:56:21;;;;;;;1.90;1.60;;;25.60;53.80;;;;;;4974581;28;20249;-80
2021/06/06 05:58:48;;;;;;;1.63;1.53;;;25.60;53.80;;;;;;4974255;28;21037;-80
2021/06/06 06:01:14;;;;;;;1.93;1.60;;;25.60;53.80;;;;;;4997706;28;20427;-80
2021/06/06 06:03:40;;;;;;;1.90;1.70;;;25.70;53.90;;;;;;4995391;28;20433;-79
2021/06/06 06:06:07;;;;;;;1.40;1.30;;;25.60;53.80;;;;;;4998196;28;20424;-80
2021/06/06 06:08:36;;;;;;;1.47;1.37;;;25.60;53.80;;;;;;4987530;28;20161;-80
2021/06/06 06:11:04;;;;;;;1.50;1.40;;;25.70;53.90;;;;;;4991781;28;20440;-80
2021/06/06 06:13:31;;;;;;;1.40;1.23;;;25.60;53.80;;;;;;4994339;28;20860;-80
2021/06/06 06:15:57;;;;;;;1.90;1.70;;;25.70;53.90;;;;;;4993005;28;20428;-80
2021/06/06 06:18:30;;;;;;;1.67;1.57;;;25.70;53.90;;;;;;4969772;28;20522;-80
2021/06/06 06:20:57;;;;;;;1.43;1.33;;;25.70;53.90;;;;;;4981522;28;20428;-81
2021/06/06 06:23:23;;;;;;;1.83;1.57;;;25.60;53.80;;;;;;4993440;28;20589;-81
2021/06/06 06:25:50;;;;;;;1.70;1.60;;;25.70;53.90;;;;;;4993036;28;20437;-81
2021/06/06 06:28:16;;;;;;;1.80;1.53;;;25.70;53.90;;;;;;4992853;28;20182;-81
2021/06/06 06:30:42;;;;;;;1.77;1.63;;;25.70;53.90;;;;;;4976402;28;20440;-81
2021/06/06 06:33:08;;;;;;;1.80;1.33;;;25.70;53.90;;;;;;4975147;28;20456;-80
2021/06/06 06:35:35;;;;;;;1.80;1.70;;;25.70;53.90;;;;;;4990962;28;20245;-80
2021/06/06 06:38:02;;;;;;;1.80;1.70;;;25.70;53.90;;;;;;4977083;28;20417;-80
2021/06/06 06:40:29;;;;;;;1.70;1.43;;;25.70;54.00;;;;;;4978274;28;20958;-81
2021/06/06 06:42:55;;;;;;;1.87;1.77;;;25.70;53.90;;;;;;4980786;28;20423;-80
2021/06/06 06:45:30;;;;;;;1.57;1.40;;;25.70;54.00;;;;;;4979983;28;20460;-82
2021/06/06 06:48:01;;;;;;;2.20;1.70;;;25.70;54.00;;;;;;4978365;28;20431;-80
2021/06/06 06:50:31;;;;;;;1.97;1.63;;;25.70;53.90;;;;;;4993255;28;20413;-81
2021/06/06 06:52:57;;;;;;;1.67;1.57;;;25.70;53.90;;;;;;4993876;28;20391;-81
2021/06/06 06:55:24;;;;;;;1.70;1.60;;;25.70;54.00;;;;;;4994690;28;20428;-80
2021/06/06 06:57:50;;;;;;;1.93;1.60;;;25.70;53.90;;;;;;4976941;28;20177;-81
2021/06/06 07:00:21;;;;;;;2.10;1.43;;;25.70;54.00;;;;;;4977566;28;20413;-81
2021/06/06 07:02:47;;;;;;;1.80;1.70;;;25.70;54.00;;;;;;4994917;28;20402;-81
2021/06/06 07:05:14;;;;;;;1.63;1.53;;;25.70;54.00;;;;;;4995048;28;20463;-81
2021/06/06 07:07:43;;;;;;;2.40;1.83;;;25.70;54.00;;;;;;4978749;28;20185;-81
2021/06/06 07:10:12;;;;;;;4.70;1.57;;;25.70;53.90;;;;;;4995281;28;20428;-81
2021/06/06 07:12:38;;;;;;;1.83;1.73;;;25.70;53.90;;;;;;4978917;28;20425;-81
2021/06/06 07:15:07;;;;;;;1.93;1.70;;;25.70;54.00;;;;;;4979095;28;20445;-80
2021/06/06 07:17:33;;;;;;;2.03;1.50;;;25.70;54.00;;;;;;4978743;28;20258;-81
2021/06/06 07:19:59;;;;;;;1.87;1.60;;;25.70;54.00;;;;;;4977375;28;20499;-81
2021/06/06 07:22:25;;;;;;;1.77;1.60;;;25.80;54.00;;;;;;4994684;28;20405;-81
2021/06/06 07:24:51;;;;;;;1.57;1.37;;;25.70;54.00;;;;;;4993976;28;20480;-81
2021/06/06 07:27:18;;;;;;;1.80;1.40;;;25.70;53.90;;;;;;4994232;28;20639;-81
2021/06/06 07:29:45;;;;;;;1.60;1.50;;;25.70;53.90;;;;;;4993760;28;20485;-81
2021/06/06 07:32:11;;;;;;;1.63;1.53;;;25.70;53.90;;;;;;4993232;28;20421;-81
2021/06/06 07:34:37;;;;;;;1.40;1.30;;;25.70;53.90;;;;;;4993141;28;20421;-81
2021/06/06 07:37:06;;;;;;;1.77;1.67;;;25.70;54.00;;;;;;4993647;28;20429;-81
2021/06/06 07:39:33;;;;;;;1.50;1.40;;;25.80;54.00;;;;;;4994534;28;20482;-81
2021/06/06 07:41:59;;;;;;;2.30;2.10;;;25.70;54.00;;;;;;4995415;28;20418;-81
2021/06/06 07:44:27;;;;;;;1.60;1.50;;;25.80;54.00;;;;;;4976324;28;20456;-81
2021/06/06 07:46:53;;;;;;;1.63;1.53;;;25.70;53.90;;;;;;4977077;28;20429;-81
2021/06/06 07:49:19;;;;;;;2.23;1.70;;;25.70;54.00;;;;;;4992472;28;20536;-81
2021/06/06 07:51:45;;;;;;;1.60;1.30;;;25.70;53.90;;;;;;4976807;28;20182;-81
2021/06/06 07:54:13;;;;;;;2.10;1.90;;;25.70;53.90;;;;;;4993356;28;20424;-81
2021/06/06 07:56:39;;;;;;;1.70;1.60;;;25.80;54.00;;;;;;4976938;28;20282;-80
2021/06/06 07:59:05;;;;;;;1.60;1.50;;;25.70;54.00;;;;;;4977764;28;20476;-80
2021/06/06 08:01:34;;;;;;;2.10;1.90;;;25.70;54.00;;;;;;4976639;28;20177;-80
2021/06/06 08:03:59;;;;;;;1.80;1.70;;;25.70;54.00;;;;;;4978342;28;20426;-80
2021/06/06 08:06:26;;;;;;;2.10;1.90;;;25.70;54.00;;;;;;4978813;28;20425;-80
2021/06/06 08:09:00;;;;;;;3.60;2.33;;;25.70;54.00;;;;;;4994879;28;20202;-80
2021/06/06 08:11:26;;;;;;;2.17;1.97;;;25.80;54.10;;;;;;4994803;28;20535;-80
2021/06/06 08:13:53;;;;;;;3.43;2.80;;;25.80;54.10;;;;;;4978412;28;20409;-80
2021/06/06 08:16:20;;;;;;;3.27;2.53;;;25.80;54.20;;;;;;4978625;28;20189;-80
2021/06/06 08:18:47;;;;;;;2.90;2.60;;;25.80;54.10;;;;;;4978392;28;20487;-79
2021/06/06 08:21:16;;;;;;;2.23;2.03;;;25.80;54.10;;;;;;4995998;28;20446;-80
2021/06/06 08:23:42;;;;;;;3.00;2.70;;;25.80;54.10;;;;;;4995169;28;20418;-80
2021/06/06 08:26:08;;;;;;;3.40;2.60;;;25.80;54.10;;;;;;4978583;28;20424;-79
2021/06/06 08:28:35;;;;;;;3.00;2.70;;;25.80;54.10;;;;;;4978423;28;20488;-79
2021/06/06 08:31:08;;;;;;;2.87;2.60;;;25.80;54.20;;;;;;4995103;28;20417;-80
2021/06/06 08:33:34;;;;;;;2.70;2.10;;;25.70;54.10;;;;;;4978261;28;20417;-79
2021/06/06 08:36:05;;;;;;;3.47;2.23;;;25.80;54.10;;;;;;4978424;28;20489;-80
2021/06/06 08:38:35;;;;;;;3.10;2.43;;;25.70;54.00;;;;;;4978772;28;20457;-80
2021/06/06 08:41:22;;;;;;;2.83;2.63;;;25.80;54.10;;;;;;4963086;28;20452;-80
2021/06/06 08:43:50;;;;;;;2.10;1.90;;;25.80;54.10;;;;;;4975949;28;20434;-79
2021/06/06 08:46:19;;;;;;;2.60;2.40;;;25.80;54.10;;;;;;4977064;29;20410;-79
2021/06/06 08:48:45;;;;;;;2.53;2.33;;;25.80;54.10;;;;;;4959423;28;20421;-79
2021/06/06 08:51:20;;;;;;;2.90;2.70;;;25.80;54.10;;;;;;4960471;29;20422;-80
2021/06/06 08:54:03;;;;;;;4.43;3.00;;;25.80;54.10;;;;;;4975599;29;20246;-79
2021/06/06 08:56:38;;;;;;;2.60;2.40;;;25.80;54.10;;;;;;4975862;29;20967;-79
2021/06/06 08:59:20;;;;;;;4.93;3.30;;;25.80;54.20;;;;;;4977403;29;20433;-80
2021/06/06 09:01:56;;;;;;;5.13;3.07;;;25.80;54.80;;;;;;4958666;29;20481;-80
2021/06/06 09:04:32;;;;;;;3.47;3.00;;;25.80;54.20;;;;;;4975756;29;20500;-80
2021/06/06 09:07:05;;;;;;;4.03;2.40;;;25.80;54.20;;;;;;4975443;29;20406;-80
2021/06/06 09:09:37;;;;;;;4.20;2.70;;;25.80;54.20;;;;;;4981237;28;20426;-80
2021/06/06 09:12:07;;;;;;;3.50;2.93;;;25.80;54.20;;;;;;4975740;28;20406;-80
2021/06/06 09:14:33;;;;;;;3.73;2.83;;;25.80;54.20;;;;;;4958669;29;20490;-80
2021/06/06 09:17:07;;;;;;;4.33;3.07;;;25.80;54.20;;;;;;4975264;29;20426;-80
2021/06/06 09:19:55;;;;;;;3.10;2.53;;;25.80;54.20;;;;;;4975298;29;20478;-80
2021/06/06 09:22:32;;;;;;;3.20;2.70;;;25.80;54.20;;;;;;4958789;29;20421;-80
2021/06/06 09:25:07;;;;;;;3.43;2.90;;;25.80;54.20;;;;;;4975746;29;20421;-80
2021/06/06 09:27:33;;;;;;;3.97;3.33;;;25.80;54.20;;;;;;4958663;29;20402;-80
2021/06/06 09:30:08;;;;;;;5.97;3.40;;;25.80;54.20;;;;;;4975044;29;20410;-80
2021/06/06 09:32:35;;;;;;;3.23;2.50;;;25.80;54.20;;;;;;4975281;29;20398;-80
2021/06/06 09:35:24;;;;;;;3.63;2.50;;;25.80;54.20;;;;;;4990293;28;20437;-79
2021/06/06 09:38:18;;;;;;;4.47;3.13;;;25.80;54.80;;;;;;4975703;29;20386;-80
2021/06/06 09:40:47;;;;;;;2.97;2.67;;;25.80;54.20;;;;;;4976514;29;20454;-80
2021/06/06 09:43:30;;;;;;;3.60;2.50;;;25.80;54.20;;;;;;4976448;29;20402;-80
2021/06/06 09:46:17;;;;;;;2.97;2.67;;;25.90;54.20;;;;;;4958816;29;20414;-80
2021/06/06 10:05:51;;;;;;;7.40;2.50;;;25.90;54.30;;;;;;4951539;29;20525;-78
2021/06/06 10:12:24;;;;;;;4.53;2.80;;;25.90;54.20;;;;;;4950431;29;20464;-79
2021/06/06 10:15:20;;;;;;;2.87;2.40;;;25.90;54.20;;;;;;4950194;29;20411;-79
2021/06/06 10:18:17;;;;;;;3.07;2.77;;;25.90;54.20;;;;;;4951451;29;20498;-78
2021/06/06 10:31:29;;;;;;;3.37;2.87;;;25.90;54.10;;;;;;4895375;29;20397;-80
2021/06/06 10:34:35;;;;;;;5.30;3.20;;;25.90;54.20;;;;;;4872622;29;20522;-80
2021/06/06 10:37:13;;;;;;;5.00;3.40;;;25.90;54.20;;;;;;4866898;29;20430;-79
2021/06/06 10:40:18;;;;;;;3.83;2.70;;;25.90;54.30;;;;;;4859281;29;20630;-80
2021/06/06 10:43:27;;;;;;;6.43;3.10;;;25.90;54.20;;;;;;4858437;29;20419;-80
2021/06/06 10:46:11;;;;;;;3.80;3.00;;;25.90;54.20;;;;;;4858202;29;20433;-80
2021/06/06 10:49:07;;;;;;;5.47;3.00;;;25.90;54.30;;;;;;4858457;29;20483;-80
2021/06/06 10:52:04;;;;;;;4.30;3.00;;;25.90;54.30;;;;;;4840563;29;20512;-80
2021/06/06 10:55:21;;;;;;;5.47;3.17;;;25.80;54.20;;;;;;4857424;29;20435;-80
2021/06/06 10:58:18;;;;;;;4.07;3.67;;;25.90;54.30;;;;;;4843082;29;20450;-80
2021/06/06 11:04:09;;;;;;;4.10;2.93;;;25.90;54.20;;;;;;4857155;29;20460;-80
2021/06/06 11:14:01;;;;;;;4.07;3.20;;;25.90;54.30;;;;;;4784502;30;20410;-80
2021/06/06 11:19:54;;;;;;;3.37;2.70;;;25.90;54.40;;;;;;4815377;29;20567;-79
2021/06/06 11:23:08;;;;;;;4.37;3.53;;;25.90;54.50;;;;;;4825570;29;20458;-80
2021/06/06 11:26:12;;;;;;;3.17;2.87;;;25.90;54.40;;;;;;4824045;29;20435;-80
2021/06/06 11:29:11;;;;;;;5.00;3.30;;;25.90;54.40;;;;;;4842455;29;20465;-80
2021/06/06 11:35:31;;;;;;;3.60;3.10;;;25.90;54.40;;;;;;4861123;29;20383;-80
2021/06/06 11:45:15;;;;;;;5.10;2.70;;;25.90;54.50;;;;;;4860329;29;20421;-79
2021/06/06 11:51:45;;;;;;;3.07;2.77;;;25.90;54.50;;;;;;4975286;29;20405;-79
2021/06/06 11:54:32;;;;;;;3.90;2.80;;;25.90;54.50;;;;;;4945726;28;20437;-79
2021/06/06 11:57:11;;;;;;;3.87;2.90;;;25.90;54.50;;;;;;4976934;28;20413;-79
2021/06/06 12:00:06;;;;;;;3.10;2.40;;;25.90;54.50;;;;;;4976910;28;20474;-79
2021/06/06 12:08:50;;;;;;;3.93;2.90;;;26.00;54.50;;;;;;4994019;28;20397;-81
2021/06/06 12:28:47;;;;;;;4.03;3.63;;;25.90;54.40;;;;;;4902891;29;20973;-81
2021/06/06 12:31:52;;;;;;;;;;;;;;;;;;;;;
2021/06/06 12:35:04;;;;;;;;;;;;;;;;;;;;;
2021/06/06 12:44:15;;;;;;;4.90;2.87;;;25.90;54.40;;;;;;4916958;29;20446;-81
2021/06/06 12:47:37;;;;;;;2.87;2.67;;;25.80;54.40;;;;;;4934458;29;20412;-82
2021/06/06 12:50:48;;;;;;;2.57;2.37;;;25.90;54.50;;;;;;4911313;29;20423;-82
2021/06/06 12:53:56;;;;;;;2.80;2.50;;;25.80;54.40;;;;;;4993761;28;20405;-82
2021/06/06 12:56:44;;;;;;;2.90;2.37;;;25.80;54.40;;;;;;4993186;28;20411;-81
2021/06/06 13:17:37;;;;;;;3.00;2.23;;;25.80;54.50;;;;;;4934402;28;20424;-82
2021/06/06 13:23:40;;;;;;;3.20;2.40;;;25.80;54.60;;;;;;4932378;28;20530;-82
2021/06/06 13:26:11;;;;;;;3.70;2.67;;;25.80;54.60;;;;;;4917844;29;20436;-81
2021/06/06 13:29:27;;;;;;;2.73;2.10;;;25.70;54.50;;;;;;4917628;29;20419;-80
2021/06/06 14:05:37;;;;;;;2.27;2.07;;;25.80;54.60;;;;;;4962047;28;21000;-80
2021/06/06 14:11:36;;;;;;;2.80;2.60;;;25.80;54.60;;;;;;4951038;29;20402;-79
2021/06/06 14:14:02;;;;;;;2.40;2.20;;;25.80;54.70;;;;;;4951900;29;20510;-79
2021/06/06 14:16:31;;;;;;;3.20;2.50;;;25.80;54.60;;;;;;4951707;29;20416;-79
2021/06/06 14:18:59;;;;;;;3.10;2.73;;;25.80;54.60;;;;;;4967613;28;20520;-79
2021/06/06 14:21:31;;;;;;;3.30;2.53;;;25.80;54.60;;;;;;4936140;29;20423;-79
2021/06/06 14:23:58;;;;;;;2.73;2.53;;;25.80;54.60;;;;;;4936621;29;20423;-79
2021/06/06 14:26:26;;;;;;;4.67;2.40;;;25.80;54.60;;;;;;4967920;28;20415;-79
2021/06/06 14:28:54;;;;;;;2.33;2.13;;;25.80;54.50;;;;;;4944538;29;20434;-79
2021/06/06 14:31:21;;;;;;;3.03;2.47;;;25.90;54.50;;;;;;4973504;29;20418;-79
2021/06/06 14:33:49;;;;;;;2.97;2.47;;;25.80;54.40;;;;;;4974034;29;20437;-80
2021/06/06 14:36:19;;;;;;;3.90;2.50;;;25.90;54.50;;;;;;4974360;29;20418;-80
2021/06/06 14:38:48;;;;;;;2.53;2.33;;;25.90;54.50;;;;;;4956604;29;20454;-80
2021/06/06 14:41:17;;;;;;;3.00;2.70;;;25.90;54.50;;;;;;4973874;29;20407;-80
2021/06/06 14:43:43;;;;;;;2.57;2.37;;;25.90;54.50;;;;;;4957599;28;20445;-79
2021/06/06 14:46:09;;;;;;;2.60;2.40;;;25.90;54.50;;;;;;4973317;29;20955;-79
2021/06/06 14:48:35;;;;;;;2.40;2.20;;;25.90;54.40;;;;;;4974007;29;20414;-79
2021/06/06 14:51:05;;;;;;;2.63;2.43;;;25.90;54.40;;;;;;4974280;29;20394;-80
2021/06/06 14:53:32;;;;;;;4.00;2.23;;;25.90;54.40;;;;;;4973229;28;20182;-79
2021/06/06 14:55:59;;;;;;;2.80;2.60;;;25.90;54.40;;;;;;4973318;28;20485;-78
2021/06/06 14:58:28;;;;;;;2.53;2.33;;;25.90;54.40;;;;;;4960806;28;20496;-79
2021/06/06 15:00:58;;;;;;;2.50;2.30;;;25.90;54.40;;;;;;4997244;28;20464;-81
2021/06/06 15:03:24;;;;;;;2.53;2.30;;;25.90;54.40;;;;;;4997049;28;20432;-78
2021/06/06 15:05:51;;;;;;;2.57;2.30;;;25.90;54.40;;;;;;4980071;28;20425;-80
2021/06/06 15:08:17;;;;;;;3.57;2.20;;;25.90;54.40;;;;;;4996583;28;20440;-80
2021/06/06 15:10:46;;;;;;;2.90;2.43;;;25.90;54.40;;;;;;4996989;28;20416;-81
2021/06/06 15:13:14;;;;;;;2.33;2.13;;;25.90;54.30;;;;;;4979469;28;20417;-81
2021/06/06 15:15:42;;;;;;;2.50;2.30;;;25.90;54.40;;;;;;4980435;28;20412;-81
2021/06/06 15:18:16;;;;;;;2.80;2.53;;;25.90;54.40;;;;;;4979736;28;20477;-81
2021/06/06 15:20:43;;;;;;;2.73;2.53;;;25.90;54.40;;;;;;4996563;28;20428;-81
2021/06/06 15:23:10;;;;;;;2.90;2.60;;;25.90;54.40;;;;;;4979098;28;20429;-81
2021/06/06 15:25:39;;;;;;;2.43;2.23;;;25.80;54.40;;;;;;4979639;28;20471;-80
2021/06/06 15:28:06;;;;;;;3.27;2.40;;;25.90;54.40;;;;;;4979804;28;20421;-81
2021/06/06 15:30:32;;;;;;;2.87;2.57;;;25.80;54.30;;;;;;4979284;28;20483;-80
2021/06/06 15:33:06;;;;;;;2.63;2.43;;;25.80;54.30;;;;;;4996890;28;20413;-80
2021/06/06 15:35:33;;;;;;;2.20;2.10;;;25.80;54.40;;;;;;4994841;28;20157;-80
2021/06/06 15:37:59;;;;;;;3.67;2.40;;;25.80;54.30;;;;;;4977619;28;20459;-80
2021/06/06 15:40:26;;;;;;;2.60;2.20;;;25.90;54.40;;;;;;4960989;28;20454;-81
2021/06/06 15:46:15;;;;;;;2.80;2.07;;;25.90;54.40;;;;;;4993787;28;21002;-80